createdAt,value
2023-01-19T00:00:51.548Z,8.60
2023-01-19T00:03:21.768Z,9.18
2023-01-19T00:05:48.540Z,12.90
2023-01-19T00:08:15.621Z,12.07
2023-01-19T00:10:44.770Z,11.18
2023-01-19T00:13:13.538Z,7.45
2023-01-19T00:15:40.191Z,11.48
2023-01-19T00:18:07.975Z,10.27
2023-01-19T00:20:36.057Z,8.47
2023-01-19T00:23:04.705Z,8.52
2023-01-19T00:25:31.710Z,8.20
2023-01-19T00:28:00.592Z,11.13
2023-01-19T00:30:28.405Z,6.68
2023-01-19T00:32:55.071Z,10.77
2023-01-19T00:35:21.690Z,8.02
2023-01-19T00:37:48.355Z,10.13
2023-01-19T00:40:15.361Z,11.65
2023-01-19T00:42:44.265Z,13.73
2023-01-19T00:45:13.764Z,17.63
2023-01-19T00:47:40.733Z,23.60
2023-01-19T00:50:11.744Z,13.80
2023-01-19T00:52:42.053Z,10.50
2023-01-19T00:55:13.117Z,9.52
2023-01-19T00:57:40.870Z,10.00
2023-01-19T01:00:12.262Z,8.52
2023-01-19T01:02:40.596Z,11.05
2023-01-19T01:05:08.851Z,14.98
2023-01-19T01:07:40.830Z,12.10
2023-01-19T01:10:09.768Z,11.40
2023-01-19T01:12:38.022Z,11.65
2023-01-19T01:15:07.099Z,10.40
2023-01-19T01:17:33.736Z,13.68
2023-01-19T01:20:00.509Z,12.18
2023-01-19T01:22:27.678Z,16.90
2023-01-19T01:24:54.482Z,8.50
2023-01-19T01:27:21.018Z,8.77
2023-01-19T01:29:48.329Z,9.93
2023-01-19T01:32:15.848Z,10.60
2023-01-19T01:34:43.041Z,11.53
2023-01-19T01:37:09.700Z,8.55
2023-01-19T01:39:36.818Z,8.23
2023-01-19T01:42:14.176Z,9.15
2023-01-19T01:44:53.297Z,9.60
2023-01-19T01:47:32.638Z,12.23
2023-01-19T01:50:19.599Z,12.13
2023-01-19T01:53:15.238Z,10.02
2023-01-19T01:55:48.325Z,11.32
2023-01-19T01:58:16.736Z,12.27
2023-01-19T02:01:02.056Z,9.07
2023-01-19T02:03:29.386Z,11.48
2023-01-19T02:06:00.749Z,7.70
2023-01-19T02:09:05.108Z,6.05
2023-01-19T02:11:51.964Z,10.15
2023-01-19T02:14:19.175Z,10.67
2023-01-19T02:16:46.561Z,7.78
2023-01-19T02:19:21.841Z,10.00
2023-01-19T02:22:07.248Z,10.15
2023-01-19T02:24:34.152Z,5.18
2023-01-19T02:27:01.300Z,7.90
2023-01-19T02:29:28.700Z,10.02
2023-01-19T02:31:56.215Z,11.88
2023-01-19T02:34:23.218Z,11.77
2023-01-19T02:37:06.740Z,7.85
2023-01-19T02:39:45.795Z,8.70
2023-01-19T02:42:21.882Z,8.15
2023-01-19T02:44:51.776Z,7.75
2023-01-19T02:47:18.434Z,9.00
2023-01-19T02:49:45.148Z,9.50
2023-01-19T02:52:17.807Z,8.97
2023-01-19T02:55:03.888Z,10.02
2023-01-19T02:58:06.570Z,11.65
2023-01-19T03:01:13.563Z,9.68
2023-01-19T03:03:56.305Z,11.63
2023-01-19T03:06:33.537Z,10.17
2023-01-19T03:09:21.679Z,9.68
2023-01-19T03:11:55.339Z,7.38
2023-01-19T03:14:26.730Z,7.80
2023-01-19T03:17:06.997Z,7.78
2023-01-19T03:19:39.363Z,6.87
2023-01-19T03:22:13.431Z,8.85
2023-01-19T03:24:43.345Z,6.50
2023-01-19T03:27:14.892Z,12.43
2023-01-19T03:29:46.069Z,5.63
2023-01-19T03:32:16.550Z,6.07
2023-01-19T03:34:45.065Z,9.63
2023-01-19T03:37:14.292Z,9.18
2023-01-19T03:39:41.103Z,7.32
2023-01-19T03:42:12.848Z,7.20
2023-01-19T03:44:42.306Z,8.10
2023-01-19T03:47:11.874Z,8.32
2023-01-19T03:49:41.622Z,6.05
2023-01-19T03:52:08.475Z,6.38
2023-01-19T03:54:35.100Z,11.27
2023-01-19T03:57:01.780Z,7.20
2023-01-19T03:59:28.477Z,9.48
2023-01-19T04:01:55.200Z,5.72
2023-01-19T04:04:21.857Z,7.55
2023-01-19T04:06:48.345Z,7.95
2023-01-19T04:09:15.044Z,7.50
2023-01-19T04:11:41.520Z,8.43
2023-01-19T04:14:08.179Z,9.88
2023-01-19T04:16:35.244Z,12.18
2023-01-19T04:19:01.851Z,9.13
2023-01-19T04:21:28.344Z,9.27
2023-01-19T04:23:55.016Z,10.40
2023-01-19T04:26:21.712Z,6.28
2023-01-19T04:28:48.329Z,12.00
2023-01-19T04:31:15.111Z,7.03
2023-01-19T04:33:41.702Z,7.73
2023-01-19T04:36:08.884Z,13.73
2023-01-19T04:38:35.631Z,8.57
2023-01-19T04:41:02.216Z,8.50
2023-01-19T04:43:28.797Z,8.07
2023-01-19T04:45:55.295Z,10.83
2023-01-19T04:48:22.064Z,7.60
2023-01-19T04:50:50.957Z,10.68
2023-01-19T04:53:18.554Z,7.40
2023-01-19T04:55:45.197Z,9.20
2023-01-19T04:58:11.822Z,9.33
2023-01-19T05:00:38.479Z,11.23
2023-01-19T05:03:05.750Z,7.40
2023-01-19T05:05:33.364Z,14.20
2023-01-19T05:08:00.823Z,12.25
2023-01-19T05:10:27.542Z,15.33
2023-01-19T05:12:54.306Z,14.93
2023-01-19T05:15:21.261Z,10.10
2023-01-19T05:17:48.104Z,13.13
2023-01-19T05:20:16.414Z,9.65
2023-01-19T05:22:48.544Z,12.10
2023-01-19T05:25:15.139Z,8.05
2023-01-19T05:27:41.627Z,7.10
2023-01-19T05:30:09.033Z,11.90
2023-01-19T05:32:35.697Z,9.27
2023-01-19T05:35:02.379Z,9.07
2023-01-19T05:37:29.173Z,9.65
2023-01-19T05:39:56.137Z,7.05
2023-01-19T05:42:22.810Z,9.98
2023-01-19T05:44:49.438Z,10.38
2023-01-19T05:47:16.204Z,15.33
2023-01-19T05:49:42.906Z,9.82
2023-01-19T05:52:09.697Z,10.68
2023-01-19T05:54:36.521Z,7.75
2023-01-19T05:57:04.377Z,9.18
2023-01-19T05:59:30.979Z,9.90
2023-01-19T06:01:57.750Z,10.07
2023-01-19T06:04:24.857Z,7.75
2023-01-19T06:06:52.040Z,8.93
2023-01-19T06:09:21.470Z,12.43
2023-01-19T06:12:04.923Z,7.77
2023-01-19T06:14:39.006Z,11.35
2023-01-19T06:17:12.179Z,10.10
2023-01-19T06:19:38.889Z,11.15
2023-01-19T06:22:11.353Z,9.55
2023-01-19T06:24:47.376Z,9.57
2023-01-19T06:27:16.921Z,12.35
2023-01-19T06:29:43.775Z,10.73
2023-01-19T06:32:12.928Z,10.85
2023-01-19T06:34:57.597Z,9.48
2023-01-19T06:37:43.604Z,9.20
2023-01-19T06:40:14.720Z,12.05
2023-01-19T06:42:42.301Z,11.98
2023-01-19T06:45:10.697Z,14.27
2023-01-19T06:47:37.311Z,9.85
2023-01-19T06:50:04.149Z,14.10
2023-01-19T06:53:22.511Z,11.90
2023-01-19T06:55:49.139Z,9.43
2023-01-19T06:58:21.288Z,11.10
2023-01-19T07:01:11.251Z,11.23
2023-01-19T07:03:47.066Z,11.60
2023-01-19T07:06:13.685Z,12.10
2023-01-19T07:08:43.357Z,8.68
2023-01-19T07:11:25.888Z,10.05
2023-01-19T07:14:04.908Z,10.75
2023-01-19T07:16:37.558Z,14.00
2023-01-19T07:19:11.747Z,10.05
2023-01-19T07:21:39.296Z,14.18
2023-01-19T07:24:08.746Z,10.30
2023-01-19T07:26:35.452Z,7.93
2023-01-19T07:29:02.447Z,12.80
2023-01-19T07:31:29.453Z,10.13
2023-01-19T07:34:01.327Z,7.97
2023-01-19T07:36:40.730Z,10.65
2023-01-19T07:39:07.545Z,13.05
2023-01-19T07:41:34.273Z,9.93
2023-01-19T07:44:18.915Z,10.98
2023-01-19T07:46:46.874Z,14.05
2023-01-19T07:49:20.138Z,10.10
2023-01-19T07:54:42.197Z,17.00
2023-01-19T07:57:39.199Z,10.23
2023-01-19T08:00:06.562Z,10.60
2023-01-19T08:02:37.960Z,12.27
2023-01-19T08:05:29.371Z,11.23
2023-01-19T08:08:04.333Z,17.03
2023-01-19T08:10:31.438Z,12.55
2023-01-19T08:12:58.769Z,13.07
2023-01-19T08:15:26.834Z,12.48
2023-01-19T08:18:02.016Z,11.40
2023-01-19T08:20:32.662Z,13.30
2023-01-19T08:23:15.030Z,13.65
2023-01-19T08:25:44.864Z,16.42
2023-01-19T08:28:39.195Z,13.93
2023-01-19T08:31:19.193Z,11.20
2023-01-19T08:33:47.814Z,14.10
2023-01-19T08:36:14.590Z,13.52
2023-01-19T08:38:43.475Z,17.08
2023-01-19T08:41:11.342Z,13.52
2023-01-19T08:43:40.930Z,12.65
2023-01-19T08:46:07.633Z,13.53
2023-01-19T08:48:34.347Z,11.13
2023-01-19T08:51:01.005Z,13.05
2023-01-19T08:53:27.735Z,16.00
2023-01-19T08:55:57.768Z,16.17
2023-01-19T08:58:24.565Z,11.80
2023-01-19T09:00:53.915Z,14.15
2023-01-19T09:03:24.371Z,13.65
2023-01-19T09:05:51.145Z,14.82
2023-01-19T09:08:18.377Z,12.35
2023-01-19T09:10:50.761Z,12.13
2023-01-19T09:13:19.096Z,11.10
2023-01-19T09:15:46.362Z,10.20
2023-01-19T09:18:16.589Z,12.80
2023-01-19T09:20:44.799Z,14.35
2023-01-19T09:23:14.482Z,11.70
2023-01-19T09:25:42.488Z,10.93
2023-01-19T09:28:11.183Z,12.77
2023-01-19T09:30:41.510Z,13.70
2023-01-19T09:33:13.808Z,11.30
2023-01-19T09:35:42.187Z,10.63
2023-01-19T09:38:10.314Z,12.90
2023-01-19T09:40:48.827Z,11.98
2023-01-19T09:43:35.476Z,13.45
2023-01-19T09:46:06.108Z,15.85
2023-01-19T09:48:54.152Z,10.87
2023-01-19T09:51:29.838Z,15.50
2023-01-19T09:54:00.074Z,16.00
2023-01-19T09:56:34.255Z,14.40
2023-01-19T09:59:01.090Z,10.25
2023-01-19T10:01:48.654Z,13.27
2023-01-19T10:04:15.246Z,15.73
2023-01-19T10:06:42.492Z,14.48
2023-01-19T10:09:24.440Z,20.83
2023-01-19T10:12:17.912Z,18.70
2023-01-19T10:14:52.940Z,12.83
2023-01-19T10:17:34.372Z,16.73
2023-01-19T10:20:03.485Z,17.33
2023-01-19T10:22:30.116Z,16.77
2023-01-19T10:25:01.495Z,16.00
2023-01-19T10:27:34.005Z,14.67
2023-01-19T10:30:04.326Z,18.15
2023-01-19T10:32:36.109Z,16.95
2023-01-19T10:35:25.193Z,20.67
2023-01-19T10:37:56.442Z,15.38
2023-01-19T10:40:37.291Z,18.20
2023-01-19T10:43:35.794Z,17.40
2023-01-19T10:46:06.746Z,17.15
2023-01-19T10:48:42.846Z,18.77
2023-01-19T10:51:11.212Z,11.60
2023-01-19T10:53:38.021Z,15.77
2023-01-19T10:56:16.384Z,12.05
2023-01-19T10:58:43.677Z,16.48
2023-01-19T11:01:25.646Z,16.77
2023-01-19T11:03:54.273Z,15.98
2023-01-19T11:06:29.172Z,14.53
2023-01-19T11:09:19.135Z,17.65
2023-01-19T11:11:55.857Z,14.45
2023-01-19T11:14:24.888Z,16.88
2023-01-19T11:16:54.959Z,17.83
2023-01-19T11:19:30.361Z,14.80
2023-01-19T11:22:21.689Z,19.48
2023-01-19T11:24:51.044Z,15.55
2023-01-19T11:27:20.195Z,14.93
2023-01-19T11:29:50.516Z,14.32
2023-01-19T11:32:23.120Z,17.07
2023-01-19T11:34:50.509Z,15.52
2023-01-19T11:37:20.115Z,17.17
2023-01-19T11:39:52.481Z,21.15
2023-01-19T11:42:19.800Z,17.67
2023-01-19T11:44:51.009Z,13.63
2023-01-19T11:47:26.208Z,16.05
2023-01-19T11:50:05.135Z,14.25
2023-01-19T11:52:48.041Z,17.25
2023-01-19T11:55:39.274Z,14.38
2023-01-19T11:58:06.088Z,17.60
2023-01-19T12:00:50.601Z,14.52
2023-01-19T12:03:49.099Z,16.98
2023-01-19T12:06:22.343Z,15.55
2023-01-19T12:08:53.485Z,15.07
2023-01-19T12:11:35.898Z,11.87
2023-01-19T12:14:02.822Z,10.90
2023-01-19T12:16:32.824Z,9.40
2023-01-19T12:19:13.733Z,8.93
2023-01-19T12:21:41.266Z,8.85
2023-01-19T12:24:18.577Z,11.33
2023-01-19T12:27:00.861Z,18.83
2023-01-19T12:29:37.111Z,19.38
2023-01-19T12:32:19.719Z,16.63
2023-01-19T12:34:51.884Z,17.75
2023-01-19T12:37:30.818Z,11.93
2023-01-19T12:40:02.836Z,14.85
2023-01-19T12:42:30.113Z,15.57
2023-01-19T12:45:11.968Z,18.10
2023-01-19T12:47:38.975Z,12.75
2023-01-19T12:50:14.023Z,12.37
2023-01-19T12:52:51.550Z,10.73
2023-01-19T12:55:25.392Z,10.82
2023-01-19T12:57:58.785Z,9.60
2023-01-19T13:00:25.307Z,11.82
2023-01-19T13:03:02.615Z,12.17
2023-01-19T13:05:33.244Z,7.47
2023-01-19T13:08:04.919Z,8.18
2023-01-19T13:10:59.384Z,7.70
2023-01-19T13:13:29.256Z,8.82
2023-01-19T13:15:58.257Z,5.00
2023-01-19T13:18:31.835Z,7.13
2023-01-19T13:21:01.614Z,8.80
2023-01-19T13:23:52.303Z,4.85
2023-01-19T13:26:33.135Z,5.75
2023-01-19T13:29:12.738Z,6.67
2023-01-19T13:31:42.606Z,6.22
2023-01-19T13:34:14.679Z,8.32
2023-01-19T13:36:45.467Z,7.65
2023-01-19T13:39:18.486Z,8.00
2023-01-19T13:41:47.194Z,5.67
2023-01-19T13:44:25.457Z,5.88
2023-01-19T13:46:54.022Z,4.43
2023-01-19T13:49:29.929Z,7.65
2023-01-19T13:52:07.046Z,7.78
2023-01-19T13:54:33.721Z,6.83
2023-01-19T13:57:00.474Z,5.80
2023-01-19T13:59:27.280Z,6.03
2023-01-19T14:01:54.502Z,6.63
2023-01-19T14:04:30.439Z,6.47
2023-01-19T14:07:04.097Z,5.47
2023-01-19T14:09:30.880Z,7.38
2023-01-19T14:12:16.086Z,5.82
2023-01-19T14:14:44.057Z,6.50
2023-01-19T14:17:25.100Z,6.97
2023-01-19T14:19:54.835Z,5.27
2023-01-19T14:22:21.978Z,9.75
2023-01-19T14:24:48.608Z,8.68
2023-01-19T14:27:22.657Z,11.70
2023-01-19T14:29:50.796Z,7.07
2023-01-19T14:32:25.251Z,6.83
2023-01-19T14:35:04.324Z,7.13
2023-01-19T14:37:37.347Z,6.60
2023-01-19T14:40:13.860Z,6.55
2023-01-19T14:42:55.729Z,10.07
2023-01-19T14:45:33.467Z,6.47
2023-01-19T14:48:02.026Z,7.47
2023-01-19T14:50:39.265Z,6.63
2023-01-19T14:53:14.780Z,11.13
2023-01-19T14:55:51.183Z,6.85
2023-01-19T14:58:19.820Z,8.97
2023-01-19T15:00:48.003Z,9.43
2023-01-19T15:03:15.184Z,8.65
2023-01-19T15:05:46.964Z,9.50
2023-01-19T15:08:33.653Z,8.32
2023-01-19T15:11:12.362Z,6.93
2023-01-19T15:13:40.500Z,7.95
2023-01-19T15:16:08.973Z,6.85
2023-01-19T15:18:35.549Z,3.33
2023-01-19T15:21:03.182Z,7.05
2023-01-19T15:23:31.068Z,4.53
2023-01-19T15:26:03.758Z,6.70
2023-01-19T15:28:30.937Z,4.72
2023-01-19T15:30:59.226Z,7.38
2023-01-19T15:33:30.454Z,8.95
2023-01-19T15:35:57.277Z,6.50
2023-01-19T15:38:24.067Z,4.47
2023-01-19T15:40:51.631Z,4.55
2023-01-19T15:43:18.678Z,7.13
2023-01-19T15:45:53.180Z,12.32
2023-01-19T15:48:20.530Z,5.97
2023-01-19T15:50:47.891Z,10.20
2023-01-19T15:53:17.463Z,5.80
2023-01-19T15:55:44.875Z,6.82
2023-01-19T15:58:14.827Z,8.88
2023-01-19T16:00:41.731Z,11.50
2023-01-19T16:03:10.448Z,7.97
2023-01-19T16:05:43.018Z,8.90
2023-01-19T16:08:13.565Z,9.85
2023-01-19T16:10:41.808Z,7.18
2023-01-19T16:13:12.243Z,11.87
2023-01-19T16:15:39.583Z,5.15
2023-01-19T16:18:06.392Z,9.30
2023-01-19T16:20:33.031Z,7.80
2023-01-19T16:23:13.759Z,8.63
2023-01-19T16:25:41.386Z,10.50
2023-01-19T16:28:08.510Z,7.47
2023-01-19T16:30:35.428Z,14.85
2023-01-19T16:33:02.134Z,13.98
2023-01-19T16:35:28.745Z,15.70
2023-01-19T16:37:55.299Z,12.07
2023-01-19T16:40:22.023Z,12.20
2023-01-19T16:42:48.609Z,13.85
2023-01-19T16:45:15.185Z,11.18
2023-01-19T16:47:41.813Z,16.80
2023-01-19T16:50:11.629Z,12.27
2023-01-19T16:52:38.746Z,12.70
2023-01-19T16:55:09.608Z,11.90
2023-01-19T16:57:39.066Z,15.57
2023-01-19T17:00:07.919Z,22.02
2023-01-19T17:02:35.025Z,12.53
2023-01-19T17:05:01.751Z,13.88
2023-01-19T17:07:28.625Z,14.38
2023-01-19T17:09:56.348Z,12.73
2023-01-19T17:12:23.166Z,16.65
2023-01-19T17:14:50.090Z,19.23
2023-01-19T17:17:16.819Z,19.55
2023-01-19T17:19:45.188Z,18.55
2023-01-19T17:22:13.011Z,19.98
2023-01-19T17:24:42.356Z,18.77
2023-01-19T17:27:09.952Z,16.03
2023-01-19T17:29:36.691Z,16.30
2023-01-19T17:32:04.039Z,19.38
2023-01-19T17:34:30.718Z,16.98
2023-01-19T17:37:03.394Z,19.23
2023-01-19T17:39:30.400Z,19.30
2023-01-19T17:41:57.479Z,17.27
2023-01-19T17:44:24.122Z,17.73
2023-01-19T17:46:51.373Z,17.67
2023-01-19T17:49:17.998Z,18.80
2023-01-19T17:51:44.671Z,16.80
2023-01-19T17:54:11.604Z,20.63
2023-01-19T17:56:39.463Z,19.88
2023-01-19T17:59:08.199Z,18.85
2023-01-19T18:01:39.745Z,15.95
2023-01-19T18:04:08.597Z,18.83
2023-01-19T18:06:35.674Z,17.25
2023-01-19T18:09:05.236Z,17.23
2023-01-19T18:11:32.145Z,17.70
2023-01-19T18:14:00.433Z,17.02
2023-01-19T18:16:28.998Z,16.33
2023-01-19T18:18:57.089Z,14.45
2023-01-19T18:21:27.478Z,15.23
2023-01-19T18:24:01.374Z,12.10
2023-01-19T18:26:29.220Z,25.38
2023-01-19T18:28:59.579Z,14.80
2023-01-19T18:31:27.257Z,15.90
2023-01-19T18:33:54.073Z,21.35
2023-01-19T18:36:21.013Z,25.75
2023-01-19T18:38:47.969Z,18.83
2023-01-19T18:41:19.850Z,19.63
2023-01-19T18:43:47.606Z,19.58
2023-01-19T18:46:15.591Z,30.58
2023-01-19T18:48:42.459Z,30.83
2023-01-19T18:51:17.041Z,29.13
2023-01-19T18:53:53.385Z,39.33
2023-01-19T18:56:19.983Z,46.13
2023-01-19T18:58:46.714Z,42.70
2023-01-19T19:01:19.648Z,75.85
2023-01-19T19:03:46.538Z,54.92
2023-01-19T19:06:15.156Z,40.43
2023-01-19T19:08:43.408Z,33.50
2023-01-19T19:11:12.091Z,30.30
2023-01-19T19:13:40.550Z,21.75
2023-01-19T19:16:08.782Z,16.20
2023-01-19T19:18:37.099Z,15.83
2023-01-19T19:21:13.127Z,17.73
2023-01-19T19:23:39.766Z,15.60
2023-01-19T19:26:11.940Z,15.02
2023-01-19T19:28:40.650Z,13.77
2023-01-19T19:31:13.120Z,16.63
2023-01-19T19:33:40.493Z,21.63
2023-01-19T19:36:08.007Z,23.58
2023-01-19T19:38:36.798Z,19.67
2023-01-19T19:41:08.487Z,28.98
2023-01-19T19:43:36.174Z,25.50
2023-01-19T19:46:08.437Z,29.70
2023-01-19T19:48:38.134Z,26.40
2023-01-19T19:51:17.934Z,30.77
2023-01-19T19:53:45.718Z,20.88
2023-01-19T19:56:13.382Z,25.67
2023-01-19T19:58:41.896Z,17.70
2023-01-19T20:01:25.335Z,18.80
2023-01-19T20:03:53.663Z,16.58
2023-01-19T20:06:23.594Z,14.77
2023-01-19T20:08:52.940Z,19.20
2023-01-19T20:11:22.915Z,11.80
2023-01-19T20:13:50.950Z,12.40
2023-01-19T20:16:21.131Z,14.55
2023-01-19T20:18:51.809Z,16.75
2023-01-19T20:21:19.972Z,15.43
2023-01-19T20:23:48.197Z,15.65
2023-01-19T20:26:17.900Z,12.13
2023-01-19T20:28:44.771Z,16.75
2023-01-19T20:31:27.678Z,15.60
2023-01-19T20:33:57.174Z,12.90
2023-01-19T20:36:24.665Z,17.58
2023-01-19T20:38:52.895Z,13.70
2023-01-19T20:41:20.313Z,12.60
2023-01-19T20:43:47.549Z,13.13
2023-01-19T20:46:14.187Z,11.70
2023-01-19T20:48:41.043Z,13.68
2023-01-19T20:51:13.248Z,13.48
2023-01-19T20:53:41.441Z,10.90
2023-01-19T20:56:11.959Z,13.05
2023-01-19T20:58:39.254Z,9.23
2023-01-19T21:01:22.298Z,11.65
2023-01-19T21:03:49.610Z,12.15
2023-01-19T21:06:17.716Z,11.15
2023-01-19T21:08:44.933Z,8.48
2023-01-19T21:11:13.301Z,9.90
2023-01-19T21:13:40.463Z,12.48
2023-01-19T21:16:08.099Z,10.57
2023-01-19T21:18:35.203Z,10.88
2023-01-19T21:21:01.905Z,13.32
2023-01-19T21:23:28.953Z,12.80
2023-01-19T21:25:59.148Z,9.88
2023-01-19T21:28:28.087Z,12.85
2023-01-19T21:30:55.674Z,10.15
2023-01-19T21:33:23.049Z,12.50
2023-01-19T21:35:54.474Z,10.50
2023-01-19T21:38:22.100Z,9.43
2023-01-19T21:40:52.087Z,12.30
2023-01-19T21:43:20.435Z,10.45
2023-01-19T21:45:53.685Z,11.70
2023-01-19T21:48:20.585Z,16.87
2023-01-19T21:50:58.679Z,8.48
2023-01-19T21:53:25.377Z,8.35
2023-01-19T21:55:52.122Z,11.70
2023-01-19T21:58:19.013Z,10.27
2023-01-19T22:00:46.893Z,11.50
2023-01-19T22:03:14.063Z,10.20
2023-01-19T22:05:41.225Z,7.95
2023-01-19T22:08:08.282Z,12.07
2023-01-19T22:10:37.278Z,9.35
2023-01-19T22:13:04.246Z,10.03
2023-01-19T22:15:33.578Z,11.45
2023-01-19T22:18:00.524Z,12.65
2023-01-19T22:20:27.915Z,15.52
2023-01-19T22:22:57.438Z,23.33
2023-01-19T22:25:27.936Z,22.90
2023-01-19T22:27:55.790Z,22.15
2023-01-19T22:30:22.914Z,21.08
2023-01-19T22:32:49.892Z,13.93
2023-01-19T22:35:16.938Z,18.30
2023-01-19T22:37:44.864Z,17.00
2023-01-19T22:40:14.216Z,14.82
2023-01-19T22:42:46.035Z,16.08
2023-01-19T22:45:13.227Z,12.80
2023-01-19T22:47:41.392Z,12.82
2023-01-19T22:50:09.152Z,14.37
2023-01-19T22:52:46.058Z,10.38
2023-01-19T22:55:13.257Z,13.35
2023-01-19T22:57:40.141Z,9.30
2023-01-19T23:00:08.932Z,11.90
2023-01-19T23:02:35.685Z,10.03
2023-01-19T23:05:02.323Z,9.70
2023-01-19T23:07:29.085Z,7.75
2023-01-19T23:09:55.730Z,11.43
2023-01-19T23:12:22.338Z,12.48
2023-01-19T23:14:49.351Z,9.93
2023-01-19T23:17:15.942Z,10.68
2023-01-19T23:19:42.491Z,12.18
2023-01-19T23:22:09.238Z,14.02
2023-01-19T23:24:36.009Z,10.18
2023-01-19T23:27:02.650Z,15.13
2023-01-19T23:29:29.291Z,12.23
2023-01-19T23:31:57.111Z,12.38
2023-01-19T23:34:23.722Z,19.00
2023-01-19T23:36:50.498Z,15.10
2023-01-19T23:39:20.391Z,13.43
2023-01-19T23:41:47.735Z,14.63
2023-01-19T23:44:14.796Z,9.63
2023-01-19T23:46:41.814Z,11.23
2023-01-19T23:49:08.557Z,8.70
2023-01-19T23:51:35.858Z,12.23
2023-01-19T23:54:02.716Z,9.30
2023-01-19T23:56:32.913Z,14.00
2023-01-19T23:59:02.668Z,11.07
